Time;durP1;ratioP1;P1;durP2;ratioP2;P2;SDS_P1;SDS_P2;PMS_P1;PMS_P2;Temp;Humidity;BMP_temperature;BMP_pressure;BME280_temperature;BME280_humidity;BME280_pressure;Samples;Min_cycle;Max_cycle;Signal;HPM_P1;HPM_P2
2023/08/13 00:01:31;;;;;;;10.05;3.83;;;16.30;70.60;;;;;;5055128;28;20432;-68
2023/08/13 00:03:59;;;;;;;11.40;3.90;;;16.50;71.00;;;;;;5052853;28;20040;-68
2023/08/13 00:06:26;;;;;;;9.27;4.07;;;16.70;69.20;;;;;;5052719;28;20021;-68
2023/08/13 00:08:53;;;;;;;10.52;3.70;;;16.80;67.40;;;;;;5045732;28;20490;-68
2023/08/13 00:11:21;;;;;;;9.85;4.18;;;16.80;66.40;;;;;;5052368;28;20037;-68
2023/08/13 00:13:48;;;;;;;11.20;4.72;;;16.80;67.50;;;;;;5052128;28;20398;-67
2023/08/13 00:16:16;;;;;;;13.63;5.95;;;16.80;66.90;;;;;;5037797;28;20020;-68
2023/08/13 00:18:43;;;;;;;14.25;5.07;;;17.00;67.00;;;;;;5061290;28;20038;-68
2023/08/13 00:21:10;;;;;;;20.70;6.80;;;17.70;63.80;;;;;;5054085;28;22344;-67
2023/08/13 00:23:38;;;;;;;14.88;6.18;;;18.50;65.50;;;;;;5055869;28;20497;-67
2023/08/13 00:26:05;;;;;;;15.80;6.57;;;19.70;58.80;;;;;;5054143;28;20520;-68
2023/08/13 00:28:33;;;;;;;13.82;6.32;;;20.70;55.50;;;;;;5053926;28;20051;-68
2023/08/13 00:31:01;;;;;;;9.65;4.13;;;21.40;53.60;;;;;;5049100;28;20103;-68
2023/08/13 00:33:28;;;;;;;10.57;5.00;;;21.90;52.50;;;;;;5055893;28;20089;-68
2023/08/13 00:35:55;;;;;;;9.85;5.60;;;22.00;51.50;;;;;;5056269;28;20107;-68
2023/08/13 00:38:23;;;;;;;10.15;4.13;;;21.20;52.70;;;;;;5061637;28;20354;-68
2023/08/13 00:40:50;;;;;;;7.88;3.47;;;21.10;52.40;;;;;;5057529;28;20029;-68
2023/08/13 00:43:17;;;;;;;6.97;2.60;;;21.00;52.40;;;;;;5058136;28;20064;-69
2023/08/13 00:45:45;;;;;;;5.80;2.67;;;20.50;54.60;;;;;;5055800;28;20542;-69
2023/08/13 00:48:12;;;;;;;5.68;3.13;;;20.00;55.30;;;;;;5055332;28;20077;-68
2023/08/13 00:50:40;;;;;;;9.90;3.42;;;19.90;56.80;;;;;;5054376;28;20391;-69
2023/08/13 00:53:10;;;;;;;6.35;3.22;;;20.20;55.00;;;;;;5057766;28;20032;-68
2023/08/13 00:55:37;;;;;;;6.72;2.60;;;19.90;56.30;;;;;;5050342;28;20441;-67
2023/08/13 00:58:05;;;;;;;8.95;3.33;;;20.40;57.40;;;;;;5054164;28;20028;-68
2023/08/13 01:00:32;;;;;;;6.40;3.13;;;22.00;53.30;;;;;;5055943;28;20029;-69
2023/08/13 01:03:00;;;;;;;6.40;2.95;;;23.20;49.10;;;;;;5052551;28;20480;-67
2023/08/13 01:05:42;;;;;;;6.43;2.60;;;23.20;47.00;;;;;;5057356;28;20024;-68
2023/08/13 01:08:29;;;;;;;5.93;2.20;;;23.50;47.00;;;;;;5059373;28;20040;-68
2023/08/13 01:11:14;;;;;;;4.80;2.35;;;23.70;47.60;;;;;;5053012;28;20067;-68
2023/08/13 01:13:51;;;;;;;4.78;2.63;;;23.50;48.50;;;;;;5050913;28;20210;-70
2023/08/13 01:16:20;;;;;;;6.95;3.58;;;23.60;48.20;;;;;;5046925;28;20025;-67
2023/08/13 01:18:49;;;;;;;7.50;3.42;;;23.70;48.70;;;;;;5042541;28;20025;-67
2023/08/13 01:21:16;;;;;;;16.73;8.18;;;24.40;47.90;;;;;;5051806;28;20385;-67
2023/08/13 01:23:43;;;;;;;12.95;6.82;;;24.50;46.60;;;;;;5051615;28;20024;-68
2023/08/13 01:26:18;;;;;;;14.88;8.30;;;25.00;46.10;;;;;;5050036;28;20056;-68
2023/08/13 01:29:09;;;;;;;12.18;6.20;;;25.40;45.00;;;;;;5052203;28;20033;-67
2023/08/13 01:31:39;;;;;;;11.80;5.68;;;25.10;45.90;;;;;;5051224;28;20029;-67
2023/08/13 01:34:07;;;;;;;10.25;5.82;;;24.50;45.80;;;;;;5053032;28;20037;-67
2023/08/13 01:36:35;;;;;;;15.52;7.10;;;24.00;46.60;;;;;;5047863;28;20037;-66
2023/08/13 01:39:02;;;;;;;16.00;7.03;;;23.40;47.70;;;;;;5052873;28;20033;-66
2023/08/13 01:41:56;;;;;;;14.73;7.28;;;22.70;49.00;;;;;;5049570;28;20017;-68
2023/08/13 01:44:24;;;;;;;13.20;6.05;;;21.90;50.90;;;;;;5050117;28;20483;-69
2023/08/13 01:46:52;;;;;;;13.20;6.53;;;21.70;52.90;;;;;;5062395;28;20079;-67
2023/08/13 01:49:19;;;;;;;11.32;5.40;;;21.90;50.00;;;;;;5056187;28;20041;-67
2023/08/13 01:51:47;;;;;;;12.93;5.07;;;21.60;50.20;;;;;;5051142;28;20102;-68
2023/08/13 01:54:14;;;;;;;10.75;3.83;;;21.70;51.50;;;;;;5059737;28;20056;-67
2023/08/13 01:56:41;;;;;;;8.45;3.20;;;22.00;51.70;;;;;;5040024;28;20524;-69
2023/08/13 01:59:09;;;;;;;7.25;3.10;;;21.60;51.80;;;;;;5052878;28;20021;-66
2023/08/13 02:01:36;;;;;;;9.05;2.90;;;21.60;51.80;;;;;;5048002;28;20017;-68
2023/08/13 02:04:04;;;;;;;8.10;2.67;;;21.40;51.60;;;;;;5052771;28;20094;-68
2023/08/13 02:06:33;;;;;;;7.65;2.70;;;21.40;51.70;;;;;;5052551;28;20066;-68
2023/08/13 02:09:00;;;;;;;8.65;2.72;;;21.50;51.20;;;;;;5051920;28;20045;-67
2023/08/13 02:11:28;;;;;;;5.78;2.88;;;21.80;50.00;;;;;;5049758;28;20021;-68
2023/08/13 02:13:55;;;;;;;7.55;2.67;;;22.30;49.00;;;;;;5048819;28;20060;-67
2023/08/13 02:16:23;;;;;;;5.90;2.25;;;22.20;49.70;;;;;;5041983;28;20024;-67
2023/08/13 02:18:50;;;;;;;6.82;2.42;;;22.10;50.60;;;;;;5055720;28;20067;-68
2023/08/13 02:21:20;;;;;;;7.93;2.88;;;22.00;48.90;;;;;;5054779;28;20343;-67
2023/08/13 02:23:47;;;;;;;6.25;2.45;;;21.70;50.80;;;;;;5047534;28;20029;-71
2023/08/13 02:26:14;;;;;;;8.52;2.25;;;21.20;51.50;;;;;;5052264;28;20748;-68
2023/08/13 02:28:45;;;;;;;5.70;2.20;;;21.20;51.50;;;;;;5047760;28;20055;-68
2023/08/13 02:31:13;;;;;;;5.25;2.28;;;20.90;51.40;;;;;;5048836;28;20032;-68
2023/08/13 02:33:40;;;;;;;4.65;2.10;;;20.70;52.30;;;;;;5047864;28;20035;-71
2023/08/13 02:36:07;;;;;;;6.38;2.28;;;20.40;53.40;;;;;;5053762;28;20087;-68
2023/08/13 02:38:35;;;;;;;6.03;1.60;;;20.60;52.40;;;;;;5052244;28;20033;-68
2023/08/13 02:41:02;;;;;;;6.97;2.15;;;20.20;53.70;;;;;;5056201;28;20025;-67
2023/08/13 02:43:49;;;;;;;7.82;1.65;;;20.40;53.40;;;;;;5051870;28;20033;-69
2023/08/13 02:46:16;;;;;;;3.90;1.23;;;20.70;53.70;;;;;;5044162;28;20055;-68
2023/08/13 02:48:45;;;;;;;4.65;1.35;;;20.60;53.60;;;;;;5050151;28;20032;-68
2023/08/13 02:51:16;;;;;;;6.43;1.33;;;21.00;53.60;;;;;;5053358;28;20017;-68
2023/08/13 02:53:43;;;;;;;3.88;0.88;;;21.20;53.10;;;;;;5049666;28;20028;-68
2023/08/13 02:56:11;;;;;;;4.93;1.27;;;21.30;52.80;;;;;;5044996;28;20033;-68
2023/08/13 02:58:38;;;;;;;5.28;1.42;;;21.20;53.10;;;;;;5043946;28;20033;-68
2023/08/13 03:01:07;;;;;;;3.95;0.98;;;21.20;53.40;;;;;;5048083;28;20116;-68
2023/08/13 03:03:34;;;;;;;3.58;1.30;;;21.30;53.10;;;;;;5048973;28;20120;-69
2023/08/13 03:06:02;;;;;;;2.22;0.80;;;22.10;51.90;;;;;;5053582;28;20036;-68
2023/08/13 03:08:29;;;;;;;4.63;0.88;;;22.00;53.30;;;;;;5048567;28;20024;-69
2023/08/13 03:10:57;;;;;;;4.05;0.73;;;22.10;51.90;;;;;;5050123;28;20029;-69
2023/08/13 03:13:24;;;;;;;3.42;1.00;;;21.90;52.20;;;;;;5045842;28;20024;-69
2023/08/13 03:15:51;;;;;;;3.63;0.75;;;21.70;50.20;;;;;;5042224;28;20029;-69
2023/08/13 03:18:19;;;;;;;2.92;0.90;;;21.20;51.40;;;;;;5047202;28;20492;-69
2023/08/13 03:20:46;;;;;;;4.93;0.80;;;21.20;53.70;;;;;;5040551;28;20120;-69
2023/08/13 03:23:13;;;;;;;1.90;0.60;;;21.10;54.70;;;;;;5048554;28;20032;-69
2023/08/13 03:25:41;;;;;;;2.72;1.05;;;21.00;53.30;;;;;;5046491;28;20385;-68
2023/08/13 03:28:08;;;;;;;2.25;0.70;;;21.50;53.00;;;;;;5059653;28;20042;-69
2023/08/13 03:30:35;;;;;;;2.40;0.77;;;21.70;52.60;;;;;;5046050;28;20064;-70
2023/08/13 03:33:06;;;;;;;4.03;1.23;;;21.40;52.90;;;;;;5041654;28;20050;-70
2023/08/13 03:35:41;;;;;;;5.03;0.93;;;21.40;53.40;;;;;;5033706;28;20534;-70
2023/08/13 03:38:08;;;;;;;2.92;1.10;;;21.50;52.60;;;;;;5010014;28;20052;-67
2023/08/13 03:40:38;;;;;;;2.75;0.98;;;21.20;53.40;;;;;;5047525;28;20387;-67
2023/08/13 03:43:05;;;;;;;4.68;0.93;;;20.80;53.80;;;;;;5056511;28;20036;-69
2023/08/13 03:45:33;;;;;;;3.05;0.93;;;20.60;54.90;;;;;;5049670;28;20416;-68
2023/08/13 03:48:00;;;;;;;2.83;0.70;;;20.30;55.50;;;;;;5045660;28;20418;-68
2023/08/13 03:50:27;;;;;;;2.53;0.70;;;20.20;55.60;;;;;;5049756;28;20087;-68
2023/08/13 03:52:55;;;;;;;3.95;0.85;;;20.50;54.80;;;;;;5047328;28;20028;-69
2023/08/13 03:55:22;;;;;;;1.60;0.80;;;20.40;54.90;;;;;;5052378;28;20037;-68
2023/08/13 03:57:53;;;;;;;2.53;0.73;;;20.10;56.00;;;;;;5055181;28;20039;-71
2023/08/13 04:00:20;;;;;;;3.45;1.30;;;20.10;55.30;;;;;;5050836;28;20027;-68
2023/08/13 04:02:50;;;;;;;5.85;3.10;;;20.10;55.60;;;;;;5052165;28;20402;-66
2023/08/13 04:05:18;;;;;;;4.00;1.55;;;20.20;56.50;;;;;;5055646;28;20461;-67
2023/08/13 04:07:45;;;;;;;2.42;0.77;;;20.00;56.10;;;;;;5054474;28;20051;-70
2023/08/13 04:10:12;;;;;;;3.42;1.25;;;20.00;56.00;;;;;;5039597;28;20041;-70
2023/08/13 04:12:39;;;;;;;3.78;1.02;;;19.90;57.00;;;;;;5055930;28;20020;-69
2023/08/13 04:15:07;;;;;;;4.05;1.20;;;19.80;57.10;;;;;;5056759;28;20354;-67
2023/08/13 04:17:35;;;;;;;3.42;1.10;;;19.70;56.80;;;;;;5062931;28;20176;-68
2023/08/13 04:20:03;;;;;;;1.75;0.82;;;19.50;57.40;;;;;;5057548;28;20022;-68
2023/08/13 04:22:30;;;;;;;2.35;0.68;;;19.50;57.50;;;;;;5054094;28;20355;-68
2023/08/13 04:24:58;;;;;;;6.07;0.80;;;19.50;57.60;;;;;;5061826;28;20093;-68
2023/08/13 04:27:26;;;;;;;1.95;0.65;;;19.40;58.10;;;;;;5062601;28;20474;-68
2023/08/13 04:29:53;;;;;;;3.15;0.73;;;19.30;58.10;;;;;;5051528;28;20047;-68
2023/08/13 04:32:20;;;;;;;1.17;0.52;;;19.30;57.20;;;;;;5054458;28;20033;-67
2023/08/13 04:34:48;;;;;;;1.33;0.45;;;19.30;57.60;;;;;;5054827;28;20393;-68
2023/08/13 04:37:15;;;;;;;1.80;0.30;;;19.20;57.80;;;;;;5053261;28;20060;-68
2023/08/13 04:39:42;;;;;;;5.03;0.82;;;19.20;57.50;;;;;;5048125;28;20044;-68
2023/08/13 04:42:10;;;;;;;1.55;0.63;;;19.20;58.50;;;;;;5054573;28;20024;-67
2023/08/13 04:44:38;;;;;;;5.70;0.90;;;19.00;59.90;;;;;;5058179;28;20141;-69
2023/08/13 04:47:05;;;;;;;2.45;0.90;;;18.80;62.60;;;;;;5052815;28;20466;-68
2023/08/13 04:49:33;;;;;;;2.25;0.80;;;18.50;68.20;;;;;;5044416;28;20575;-68
2023/08/13 04:52:00;;;;;;;2.42;0.90;;;18.10;72.50;;;;;;5057676;28;20028;-68
2023/08/13 04:54:27;;;;;;;2.85;0.70;;;17.90;76.80;;;;;;5050897;28;20207;-68
2023/08/13 04:56:55;;;;;;;3.85;1.25;;;17.80;77.90;;;;;;5051998;28;20308;-68
2023/08/13 04:59:22;;;;;;;2.13;0.50;;;17.70;79.30;;;;;;5050069;28;20025;-69
2023/08/13 05:01:49;;;;;;;2.22;0.75;;;17.70;79.50;;;;;;5047416;28;20044;-68
2023/08/13 05:04:17;;;;;;;4.18;1.23;;;17.60;79.50;;;;;;5050318;28;20052;-67
2023/08/13 05:06:44;;;;;;;4.55;0.75;;;17.60;80.20;;;;;;5051313;28;20032;-68
2023/08/13 05:09:11;;;;;;;2.92;1.20;;;17.50;80.10;;;;;;5058858;28;20040;-68
2023/08/13 05:11:39;;;;;;;2.50;0.80;;;17.50;80.80;;;;;;5042527;28;20052;-68
2023/08/13 05:14:06;;;;;;;3.40;0.80;;;17.50;79.60;;;;;;5053642;28;20463;-68
2023/08/13 05:16:33;;;;;;;5.95;0.95;;;17.40;79.50;;;;;;5058826;28;20082;-69
2023/08/13 05:19:01;;;;;;;2.65;0.80;;;17.40;79.80;;;;;;5049893;28;20475;-68
2023/08/13 05:21:28;;;;;;;5.97;1.60;;;17.30;79.40;;;;;;5055295;28;20362;-68
2023/08/13 05:23:55;;;;;;;6.63;1.65;;;17.30;79.60;;;;;;5058119;28;20099;-68
2023/08/13 05:26:23;;;;;;;2.65;1.10;;;17.40;80.00;;;;;;5057705;28;20512;-67
2023/08/13 05:28:50;;;;;;;3.53;1.10;;;17.40;80.20;;;;;;5053693;28;20044;-68
2023/08/13 05:31:18;;;;;;;4.05;1.00;;;17.40;80.80;;;;;;5051324;28;20111;-68
2023/08/13 05:33:45;;;;;;;8.57;1.30;;;17.30;81.70;;;;;;5062758;28;20525;-67
2023/08/13 05:36:12;;;;;;;2.47;1.05;;;17.20;82.00;;;;;;5055362;28;20116;-69
2023/08/13 05:38:40;;;;;;;8.65;1.30;;;17.10;83.30;;;;;;5059096;28;20040;-67
2023/08/13 05:41:07;;;;;;;6.57;1.25;;;17.00;83.90;;;;;;5056803;28;20152;-67
2023/08/13 05:43:34;;;;;;;5.80;1.08;;;16.90;84.40;;;;;;5059894;28;20036;-67
2023/08/13 05:46:02;;;;;;;6.43;1.27;;;16.90;85.00;;;;;;5052834;28;20420;-67
2023/08/13 05:48:29;;;;;;;6.18;2.03;;;17.00;83.30;;;;;;5059180;28;20039;-67
2023/08/13 05:50:57;;;;;;;4.28;1.15;;;16.90;83.70;;;;;;5057718;28;20036;-68
2023/08/13 05:53:24;;;;;;;5.80;1.50;;;17.00;83.90;;;;;;5056936;28;20389;-68
2023/08/13 05:55:52;;;;;;;3.58;0.98;;;17.10;83.70;;;;;;5057013;28;20115;-68
2023/08/13 05:58:20;;;;;;;8.15;1.40;;;17.00;83.90;;;;;;5057516;28;20493;-67
2023/08/13 06:00:47;;;;;;;7.07;1.85;;;17.00;84.70;;;;;;5046528;28;20025;-68
2023/08/13 06:03:15;;;;;;;3.40;1.30;;;16.80;86.40;;;;;;5054198;28;20025;-67
2023/08/13 06:05:42;;;;;;;7.53;1.45;;;16.70;87.30;;;;;;5055087;28;20163;-67
2023/08/13 06:08:10;;;;;;;4.93;1.27;;;16.50;88.10;;;;;;5058882;28;20476;-68
2023/08/13 06:10:37;;;;;;;7.35;1.83;;;16.40;88.50;;;;;;5056396;28;20454;-68
2023/08/13 06:13:05;;;;;;;6.28;1.45;;;16.30;88.90;;;;;;5051110;28;20058;-67
2023/08/13 06:15:32;;;;;;;8.20;1.35;;;16.40;88.50;;;;;;5055682;28;20028;-68
2023/08/13 06:18:00;;;;;;;6.32;1.42;;;16.30;88.30;;;;;;5060271;28;20032;-68
2023/08/13 06:20:28;;;;;;;5.38;1.20;;;16.20;88.60;;;;;;5063725;28;20032;-68
2023/08/13 06:22:55;;;;;;;9.90;1.88;;;16.20;88.80;;;;;;5052793;28;20033;-68
2023/08/13 06:25:22;;;;;;;5.47;1.48;;;16.10;88.70;;;;;;5053044;28;20177;-68
2023/08/13 06:27:49;;;;;;;5.32;1.40;;;16.10;89.40;;;;;;5052910;28;20059;-68
2023/08/13 06:30:17;;;;;;;9.73;1.40;;;16.10;89.20;;;;;;5046758;28;20056;-68
2023/08/13 06:32:44;;;;;;;3.83;1.10;;;16.10;88.70;;;;;;5055318;28;20120;-68
2023/08/13 06:35:11;;;;;;;7.05;1.63;;;16.10;89.00;;;;;;5043679;28;20020;-68
2023/08/13 06:37:39;;;;;;;6.07;1.40;;;16.10;89.20;;;;;;5045998;28;20029;-69
2023/08/13 06:40:07;;;;;;;9.68;2.00;;;16.10;89.10;;;;;;5047457;28;20021;-69
2023/08/13 06:42:34;;;;;;;4.40;1.30;;;16.10;89.90;;;;;;5049032;28;20029;-69
2023/08/13 06:45:01;;;;;;;8.43;1.63;;;15.90;90.20;;;;;;5057860;28;20024;-69
2023/08/13 06:47:29;;;;;;;10.30;1.90;;;15.90;90.40;;;;;;5058504;28;20028;-69
2023/08/13 06:49:57;;;;;;;9.23;1.60;;;15.90;90.70;;;;;;5047251;28;20037;-69
2023/08/13 06:52:25;;;;;;;11.63;1.40;;;15.80;90.70;;;;;;5053632;28;20139;-70
2023/08/13 06:54:52;;;;;;;5.72;1.25;;;15.80;90.90;;;;;;5058853;28;20103;-69
2023/08/13 06:57:19;;;;;;;4.78;1.20;;;15.70;90.90;;;;;;5049044;28;20039;-69
2023/08/13 06:59:47;;;;;;;5.47;1.40;;;15.70;90.70;;;;;;5046088;28;20036;-69
2023/08/13 07:02:14;;;;;;;6.60;1.40;;;15.60;90.60;;;;;;5053541;28;20495;-67
2023/08/13 07:04:42;;;;;;;3.92;1.27;;;15.60;90.70;;;;;;5048111;28;20021;-67
2023/08/13 07:07:09;;;;;;;6.97;1.55;;;15.60;91.00;;;;;;5040252;28;20036;-69
2023/08/13 07:09:36;;;;;;;7.88;1.92;;;15.50;91.00;;;;;;5049313;28;20094;-68
2023/08/13 07:12:04;;;;;;;6.68;1.60;;;15.40;91.40;;;;;;5045931;28;20112;-68
2023/08/13 07:14:31;;;;;;;9.32;1.98;;;15.40;91.60;;;;;;5055309;28;20489;-67
2023/08/13 07:16:59;;;;;;;9.50;1.70;;;15.40;91.70;;;;;;5055151;28;20020;-68
2023/08/13 07:19:26;;;;;;;9.23;1.95;;;15.40;91.70;;;;;;5057327;28;20449;-68
2023/08/13 07:21:54;;;;;;;5.28;1.48;;;15.40;91.80;;;;;;5051005;28;20021;-68
2023/08/13 07:24:21;;;;;;;7.65;1.60;;;15.50;91.80;;;;;;5051754;28;20036;-68
2023/08/13 07:26:48;;;;;;;6.35;2.10;;;15.40;92.20;;;;;;5055177;28;20084;-68
2023/08/13 07:29:16;;;;;;;9.18;2.38;;;15.40;92.70;;;;;;5048414;28;20067;-68
2023/08/13 07:31:44;;;;;;;9.30;2.58;;;15.20;93.30;;;;;;5055291;28;20035;-68
2023/08/13 07:34:11;;;;;;;7.40;1.55;;;15.30;93.80;;;;;;5047867;28;20528;-68
2023/08/13 07:36:38;;;;;;;10.77;2.20;;;15.30;94.00;;;;;;5048765;28;20028;-69
2023/08/13 07:39:09;;;;;;;10.88;1.85;;;15.30;94.20;;;;;;5041819;28;20036;-68
2023/08/13 07:41:36;;;;;;;11.40;2.45;;;15.30;94.60;;;;;;5064729;28;20028;-69
2023/08/13 07:44:05;;;;;;;7.30;2.50;;;15.20;94.90;;;;;;5052321;28;20064;-67
2023/08/13 07:46:32;;;;;;;12.52;3.10;;;15.10;95.00;;;;;;5035973;28;20447;-68
2023/08/13 07:49:01;;;;;;;8.00;1.67;;;15.10;95.20;;;;;;5052032;28;20038;-68
2023/08/13 07:51:29;;;;;;;11.50;2.05;;;15.00;95.50;;;;;;5048513;28;20029;-68
2023/08/13 07:53:56;;;;;;;8.48;2.63;;;14.90;95.90;;;;;;5041482;28;20021;-69
2023/08/13 07:56:23;;;;;;;7.40;2.05;;;14.80;96.00;;;;;;5048407;28;20034;-69
2023/08/13 07:58:51;;;;;;;7.47;2.13;;;14.80;96.30;;;;;;5060483;28;20041;-68
2023/08/13 08:01:18;;;;;;;11.80;2.15;;;14.80;96.40;;;;;;5047274;28;20024;-68
2023/08/13 08:03:46;;;;;;;13.23;2.92;;;14.80;96.70;;;;;;4954972;28;20103;-69
2023/08/13 08:06:13;;;;;;;11.63;2.55;;;14.90;96.60;;;;;;4994332;28;20286;-70
2023/08/13 08:08:40;;;;;;;9.95;2.05;;;14.90;96.60;;;;;;5025040;28;20086;-69
2023/08/13 08:11:08;;;;;;;13.45;2.00;;;14.90;96.40;;;;;;5036772;28;20551;-68
2023/08/13 08:13:36;;;;;;;5.10;1.90;;;14.80;96.50;;;;;;5012142;28;20235;-69
2023/08/13 08:16:05;;;;;;;12.13;2.13;;;14.90;96.30;;;;;;5025385;28;20456;-70
2023/08/13 08:18:32;;;;;;;13.73;3.08;;;14.80;96.20;;;;;;5040858;28;20029;-68
2023/08/13 08:20:59;;;;;;;12.85;2.95;;;14.80;96.70;;;;;;5025525;28;20029;-68
2023/08/13 08:23:27;;;;;;;18.27;4.97;;;14.80;96.70;;;;;;5043938;28;20021;-68
2023/08/13 08:25:56;;;;;;;13.75;4.13;;;14.90;96.50;;;;;;5025904;28;20371;-71
2023/08/13 08:28:23;;;;;;;11.45;3.35;;;14.80;96.70;;;;;;5019891;28;20029;-70
2023/08/13 08:30:51;;;;;;;16.67;3.72;;;14.80;96.70;;;;;;5030250;28;20079;-70
2023/08/13 08:33:21;;;;;;;12.18;3.85;;;14.70;97.00;;;;;;5045113;28;20040;-68
2023/08/13 08:35:48;;;;;;;14.27;3.15;;;14.60;97.30;;;;;;5047425;28;20208;-67
2023/08/13 08:38:16;;;;;;;10.05;3.10;;;14.70;97.10;;;;;;5046254;28;20079;-69
2023/08/13 08:40:45;;;;;;;11.60;2.22;;;14.60;97.30;;;;;;5045731;28;20025;-68
2023/08/13 08:43:15;;;;;;;15.85;3.33;;;14.70;97.30;;;;;;5031344;28;20024;-71
2023/08/13 08:45:45;;;;;;;7.63;1.80;;;14.80;97.00;;;;;;5053052;28;20033;-69
2023/08/13 08:48:13;;;;;;;7.18;1.70;;;14.90;96.70;;;;;;5043468;28;20045;-69
2023/08/13 08:50:43;;;;;;;10.10;2.13;;;15.00;96.40;;;;;;5053728;28;20037;-68
2023/08/13 08:53:11;;;;;;;7.47;2.08;;;15.00;96.30;;;;;;5051992;28;20441;-69
2023/08/13 08:55:41;;;;;;;10.13;2.22;;;15.00;96.30;;;;;;5052351;28;20111;-69
2023/08/13 08:58:08;;;;;;;13.98;2.65;;;14.90;96.40;;;;;;5054535;28;20024;-68
2023/08/13 09:00:36;;;;;;;11.23;2.38;;;14.90;96.60;;;;;;5022176;28;20319;-70
2023/08/13 09:03:04;;;;;;;11.50;3.15;;;14.80;96.20;;;;;;5034082;28;20390;-67
2023/08/13 09:05:36;;;;;;;9.30;1.80;;;14.80;96.50;;;;;;5043377;28;20226;-69
2023/08/13 09:08:22;;;;;;;11.75;2.05;;;14.80;96.50;;;;;;5045674;28;20040;-69
2023/08/13 09:10:51;;;;;;;11.13;2.35;;;14.80;96.20;;;;;;5051088;28;20051;-68
2023/08/13 09:13:18;;;;;;;9.52;1.80;;;14.80;96.30;;;;;;5056391;28;20183;-68
2023/08/13 09:15:49;;;;;;;11.95;1.88;;;14.80;96.30;;;;;;5058257;28;20033;-68
2023/08/13 09:18:23;;;;;;;8.93;1.60;;;14.70;96.30;;;;;;5056668;28;20032;-67
2023/08/13 09:20:50;;;;;;;7.85;1.83;;;14.70;96.50;;;;;;5044394;28;20021;-69
2023/08/13 09:23:25;;;;;;;13.07;2.00;;;14.70;96.70;;;;;;5056786;28;20032;-67
2023/08/13 09:25:57;;;;;;;9.90;1.80;;;14.70;96.50;;;;;;5055539;28;20511;-66
2023/08/13 09:28:25;;;;;;;10.52;1.98;;;14.60;96.30;;;;;;5047749;28;20778;-67
2023/08/13 09:30:53;;;;;;;9.25;2.70;;;14.40;96.70;;;;;;5058384;28;20048;-70
2023/08/13 09:33:20;;;;;;;14.13;2.30;;;14.30;97.30;;;;;;5048573;28;20082;-69
2023/08/13 09:35:47;;;;;;;6.60;1.70;;;14.30;97.10;;;;;;5047988;28;20462;-67
2023/08/13 09:38:15;;;;;;;8.90;1.63;;;14.40;96.70;;;;;;5052242;28;20033;-68
2023/08/13 09:40:46;;;;;;;4.38;1.30;;;14.30;96.90;;;;;;5058898;28;20025;-68
2023/08/13 09:43:19;;;;;;;7.65;2.00;;;14.30;97.00;;;;;;5051349;28;20021;-68
2023/08/13 09:45:48;;;;;;;5.95;1.30;;;14.40;97.10;;;;;;5053883;28;20079;-68
2023/08/13 09:48:19;;;;;;;6.32;1.70;;;14.60;96.30;;;;;;5053263;28;20036;-68
2023/08/13 09:50:49;;;;;;;8.95;1.48;;;14.50;96.50;;;;;;5055848;28;20040;-69
2023/08/13 09:53:20;;;;;;;8.68;1.83;;;14.40;96.60;;;;;;5060601;28;20013;-68
2023/08/13 09:55:59;;;;;;;4.75;1.17;;;14.30;96.90;;;;;;5043211;28;20067;-67
2023/08/13 09:58:28;;;;;;;8.35;1.60;;;14.30;97.10;;;;;;5044639;28;20032;-68
2023/08/13 10:00:58;;;;;;;5.38;1.33;;;14.30;97.00;;;;;;5042158;28;20342;-68
2023/08/13 10:03:25;;;;;;;5.13;1.20;;;14.40;96.70;;;;;;5043529;28;20028;-68
2023/08/13 10:05:55;;;;;;;8.25;1.58;;;14.40;96.90;;;;;;5049283;28;20393;-68
2023/08/13 10:08:22;;;;;;;6.18;1.60;;;14.60;96.00;;;;;;5038136;28;20045;-69
2023/08/13 10:10:51;;;;;;;14.32;2.17;;;14.70;95.70;;;;;;5053184;28;20040;-68
2023/08/13 10:13:20;;;;;;;8.27;1.70;;;14.80;95.40;;;;;;5042683;28;20131;-68
2023/08/13 10:15:48;;;;;;;8.68;2.10;;;14.60;95.50;;;;;;5048573;28;20056;-69
2023/08/13 10:18:17;;;;;;;6.03;1.38;;;14.50;96.10;;;;;;5043365;28;20024;-68
2023/08/13 10:20:45;;;;;;;11.32;1.83;;;14.40;96.50;;;;;;5033178;28;20029;-68
2023/08/13 10:23:13;;;;;;;11.05;2.38;;;14.30;96.50;;;;;;5044737;28;20033;-70
2023/08/13 10:25:41;;;;;;;7.22;2.08;;;14.30;96.70;;;;;;5031818;28;20100;-68
2023/08/13 10:28:28;;;;;;;9.23;1.88;;;14.20;96.80;;;;;;5050675;28;20074;-69
2023/08/13 10:31:23;;;;;;;9.35;1.80;;;14.20;97.00;;;;;;5042409;28;20045;-69
2023/08/13 10:34:12;;;;;;;8.30;2.40;;;14.20;97.00;;;;;;5049010;28;20040;-70
2023/08/13 10:36:51;;;;;;;14.02;2.38;;;14.20;97.50;;;;;;5049401;28;20029;-69
2023/08/13 10:39:40;;;;;;;5.95;1.85;;;14.30;96.90;;;;;;5051637;28;20031;-68
2023/08/13 10:42:36;;;;;;;8.63;2.72;;;14.20;96.90;;;;;;5050327;28;20470;-69
2023/08/13 10:45:07;;;;;;;14.57;2.78;;;14.20;97.10;;;;;;5052572;28;20060;-69
2023/08/13 10:47:48;;;;;;;10.70;2.60;;;14.10;97.20;;;;;;5054182;28;20033;-68
2023/08/13 10:50:28;;;;;;;9.20;1.85;;;14.00;97.30;;;;;;5049505;28;20083;-70
2023/08/13 10:53:03;;;;;;;8.35;1.67;;;14.00;97.50;;;;;;5053546;28;20135;-68
2023/08/13 10:55:38;;;;;;;6.53;2.35;;;14.00;97.50;;;;;;5049199;28;20041;-67
2023/08/13 10:58:06;;;;;;;6.50;1.85;;;14.00;97.40;;;;;;5047536;28;20040;-68
2023/08/13 11:00:42;;;;;;;7.97;1.75;;;14.00;97.50;;;;;;5036361;28;20020;-68
2023/08/13 11:03:25;;;;;;;7.95;1.90;;;14.00;97.50;;;;;;5051893;28;20988;-69
2023/08/13 11:05:54;;;;;;;11.18;1.98;;;13.90;97.60;;;;;;5052019;28;20134;-69
2023/08/13 11:08:23;;;;;;;6.45;2.05;;;14.00;97.20;;;;;;5049215;28;20059;-68
2023/08/13 11:10:52;;;;;;;15.30;2.63;;;13.90;97.30;;;;;;5049944;28;20033;-68
2023/08/13 11:13:21;;;;;;;8.68;2.25;;;14.00;97.60;;;;;;5039864;28;20465;-69
2023/08/13 11:15:53;;;;;;;5.10;2.30;;;13.90;97.70;;;;;;5044310;28;20099;-69
2023/08/13 11:18:21;;;;;;;7.93;2.08;;;13.80;98.00;;;;;;5036299;28;20021;-68
2023/08/13 11:20:50;;;;;;;5.20;2.00;;;13.80;98.10;;;;;;5049276;28;20055;-69
2023/08/13 11:23:19;;;;;;;7.50;1.95;;;13.70;98.30;;;;;;5047982;28;20114;-69
2023/08/13 11:25:48;;;;;;;5.20;1.73;;;13.80;98.60;;;;;;5040097;28;20154;-69
2023/08/13 11:28:26;;;;;;;6.55;1.60;;;13.70;98.60;;;;;;5040288;28;20040;-70
2023/08/13 11:30:54;;;;;;;;;;;13.70;98.70;;;;;;5029170;28;20040;-70
2023/08/13 11:33:21;;;;;;;7.28;2.50;;;13.70;98.80;;;;;;5047800;28;20007;-69
2023/08/13 11:35:50;;;;;;;7.50;2.00;;;13.70;98.90;;;;;;5047636;28;20033;-68
2023/08/13 11:38:18;;;;;;;7.85;1.98;;;13.60;99.00;;;;;;5044023;28;20021;-68
2023/08/13 11:40:45;;;;;;;8.98;2.15;;;13.60;99.00;;;;;;5047016;28;20048;-69
2023/08/13 11:43:14;;;;;;;8.80;2.08;;;13.60;99.10;;;;;;5043812;28;20401;-69
2023/08/13 11:45:42;;;;;;;6.50;1.70;;;13.60;99.10;;;;;;5029309;28;20044;-69
2023/08/13 11:48:20;;;;;;;5.80;2.03;;;13.60;98.90;;;;;;5039603;28;20532;-69
2023/08/13 11:50:57;;;;;;;10.45;2.70;;;13.50;98.90;;;;;;5043141;28;20045;-68
2023/08/13 11:53:26;;;;;;;7.22;2.13;;;13.50;99.10;;;;;;5059106;28;20033;-69
2023/08/13 11:55:54;;;;;;;8.82;3.00;;;13.40;99.30;;;;;;5041030;28;20033;-66
2023/08/13 11:58:26;;;;;;;11.50;3.28;;;13.40;99.50;;;;;;5039278;28;20049;-68
2023/08/13 12:00:53;;;;;;;11.77;3.33;;;13.40;99.60;;;;;;5043803;28;20025;-68
2023/08/13 12:03:21;;;;;;;13.02;3.72;;;13.40;99.70;;;;;;5050533;28;20078;-68
2023/08/13 12:05:51;;;;;;;11.55;4.47;;;13.40;99.70;;;;;;5047481;28;20025;-68
2023/08/13 12:08:20;;;;;;;8.95;3.42;;;13.40;99.90;;;;;;5041263;28;20335;-70
2023/08/13 12:10:47;;;;;;;14.15;4.53;;;13.30;99.90;;;;;;5052147;28;21706;-70
2023/08/13 12:13:15;;;;;;;18.23;4.18;;;13.20;99.90;;;;;;5047564;28;20536;-68
2023/08/13 12:15:42;;;;;;;11.15;3.95;;;13.30;99.90;;;;;;5047303;28;20470;-68
2023/08/13 12:18:09;;;;;;;7.43;3.30;;;13.20;99.90;;;;;;5044030;28;20432;-71
2023/08/13 12:20:37;;;;;;;15.80;4.05;;;13.20;99.90;;;;;;5055521;28;20017;-69
2023/08/13 12:23:04;;;;;;;12.93;4.50;;;13.10;99.90;;;;;;5045526;28;20033;-70
2023/08/13 12:25:32;;;;;;;9.10;3.75;;;13.10;99.90;;;;;;5046631;28;20032;-69
2023/08/13 12:27:59;;;;;;;11.82;3.80;;;13.10;99.90;;;;;;5053763;28;20053;-69
2023/08/13 12:30:27;;;;;;;11.98;3.80;;;13.10;99.90;;;;;;5057994;28;20033;-68
2023/08/13 12:32:54;;;;;;;11.88;3.40;;;13.00;99.90;;;;;;5047362;28;20045;-69
2023/08/13 12:35:22;;;;;;;14.20;3.47;;;13.10;99.90;;;;;;5054353;28;20486;-68
2023/08/13 12:37:50;;;;;;;11.23;3.67;;;13.10;99.90;;;;;;5058895;28;20466;-68
2023/08/13 12:40:17;;;;;;;8.60;3.20;;;13.00;99.90;;;;;;5047776;28;20031;-68
2023/08/13 12:42:45;;;;;;;11.52;3.13;;;13.00;99.90;;;;;;5052261;28;20468;-70
2023/08/13 12:45:12;;;;;;;12.57;3.78;;;13.00;99.90;;;;;;5052725;28;20071;-69
2023/08/13 12:47:40;;;;;;;8.20;2.58;;;13.10;99.90;;;;;;5051426;28;20036;-69
2023/08/13 12:50:08;;;;;;;9.70;3.17;;;13.10;99.90;;;;;;5054591;28;20163;-69
2023/08/13 12:52:36;;;;;;;10.75;3.08;;;13.00;99.90;;;;;;5044896;28;20478;-69
2023/08/13 12:55:04;;;;;;;6.55;2.80;;;13.00;99.90;;;;;;5053723;28;20037;-68